sensor_id;sensor_type;location;lat;lon;timestamp;temperature;humidity
44229;DHT22;29904;51.058;5.378;2022-07-06T00:01:53;12.70;99.90
44229;DHT22;29904;51.058;5.378;2022-07-06T00:04:19;12.60;99.90
44229;DHT22;29904;51.058;5.378;2022-07-06T00:06:45;12.60;99.90
44229;DHT22;29904;51.058;5.378;2022-07-06T00:09:11;12.50;99.90
44229;DHT22;29904;51.058;5.378;2022-07-06T00:11:37;12.50;99.90
44229;DHT22;29904;51.058;5.378;2022-07-06T00:14:03;12.40;99.90
44229;DHT22;29904;51.058;5.378;2022-07-06T00:16:29;12.40;99.90
44229;DHT22;29904;51.058;5.378;2022-07-06T00:18:55;12.30;99.90
44229;DHT22;29904;51.058;5.378;2022-07-06T00:21:23;12.30;99.90
44229;DHT22;29904;51.058;5.378;2022-07-06T00:23:49;12.40;99.90
44229;DHT22;29904;51.058;5.378;2022-07-06T00:26:15;12.30;99.90
44229;DHT22;29904;51.058;5.378;2022-07-06T00:28:42;12.30;99.90
44229;DHT22;29904;51.058;5.378;2022-07-06T00:31:10;12.40;99.90
44229;DHT22;29904;51.058;5.378;2022-07-06T00:33:36;12.30;99.90
44229;DHT22;29904;51.058;5.378;2022-07-06T00:36:02;12.30;99.90
44229;DHT22;29904;51.058;5.378;2022-07-06T00:38:28;12.30;99.90
44229;DHT22;29904;51.058;5.378;2022-07-06T00:40:54;12.30;99.90
44229;DHT22;29904;51.058;5.378;2022-07-06T00:43:19;12.30;99.90
44229;DHT22;29904;51.058;5.378;2022-07-06T00:45:45;12.20;99.90
44229;DHT22;29904;51.058;5.378;2022-07-06T00:48:11;12.20;99.90
44229;DHT22;29904;51.058;5.378;2022-07-06T00:50:38;12.20;99.90
44229;DHT22;29904;51.058;5.378;2022-07-06T00:53:06;12.20;99.90
44229;DHT22;29904;51.058;5.378;2022-07-06T00:55:35;12.20;99.90
44229;DHT22;29904;51.058;5.378;2022-07-06T00:58:02;12.20;99.90
44229;DHT22;29904;51.058;5.378;2022-07-06T01:00:28;12.10;99.90
44229;DHT22;29904;51.058;5.378;2022-07-06T01:02:55;12.10;99.90
44229;DHT22;29904;51.058;5.378;2022-07-06T01:05:21;12.10;99.90
44229;DHT22;29904;51.058;5.378;2022-07-06T01:07:48;12.00;99.90
44229;DHT22;29904;51.058;5.378;2022-07-06T01:10:17;12.00;99.90
44229;DHT22;29904;51.058;5.378;2022-07-06T01:12:44;12.00;99.90
44229;DHT22;29904;51.058;5.378;2022-07-06T01:15:16;11.90;99.90
44229;DHT22;29904;51.058;5.378;2022-07-06T01:17:42;11.90;99.90
44229;DHT22;29904;51.058;5.378;2022-07-06T01:20:16;11.80;99.90
44229;DHT22;29904;51.058;5.378;2022-07-06T01:22:43;11.80;99.90
44229;DHT22;29904;51.058;5.378;2022-07-06T01:25:09;11.80;99.90
44229;DHT22;29904;51.058;5.378;2022-07-06T01:27:36;11.80;99.90
44229;DHT22;29904;51.058;5.378;2022-07-06T01:30:16;11.70;99.90
44229;DHT22;29904;51.058;5.378;2022-07-06T01:32:43;11.70;99.90
44229;DHT22;29904;51.058;5.378;2022-07-06T01:35:14;11.70;99.90
44229;DHT22;29904;51.058;5.378;2022-07-06T01:37:42;11.60;99.90
44229;DHT22;29904;51.058;5.378;2022-07-06T01:40:09;11.60;99.90
44229;DHT22;29904;51.058;5.378;2022-07-06T01:42:38;11.60;99.90
44229;DHT22;29904;51.058;5.378;2022-07-06T01:45:05;11.60;99.90
44229;DHT22;29904;51.058;5.378;2022-07-06T01:47:32;11.60;99.90
44229;DHT22;29904;51.058;5.378;2022-07-06T01:50:01;11.60;99.90
44229;DHT22;29904;51.058;5.378;2022-07-06T01:52:27;11.60;99.90
44229;DHT22;29904;51.058;5.378;2022-07-06T01:54:53;11.50;99.90
44229;DHT22;29904;51.058;5.378;2022-07-06T01:57:19;11.50;99.90
44229;DHT22;29904;51.058;5.378;2022-07-06T01:59:45;11.50;99.90
44229;DHT22;29904;51.058;5.378;2022-07-06T02:02:10;11.50;99.90
44229;DHT22;29904;51.058;5.378;2022-07-06T02:04:38;11.40;99.90
44229;DHT22;29904;51.058;5.378;2022-07-06T02:07:06;11.50;99.90
44229;DHT22;29904;51.058;5.378;2022-07-06T02:09:31;11.40;99.90
44229;DHT22;29904;51.058;5.378;2022-07-06T02:11:57;11.30;99.90
44229;DHT22;29904;51.058;5.378;2022-07-06T02:14:24;11.40;99.90
44229;DHT22;29904;51.058;5.378;2022-07-06T02:16:52;11.40;99.90
44229;DHT22;29904;51.058;5.378;2022-07-06T02:19:18;11.40;99.90
44229;DHT22;29904;51.058;5.378;2022-07-06T02:21:45;11.30;99.90
44229;DHT22;29904;51.058;5.378;2022-07-06T02:24:11;11.30;99.90
44229;DHT22;29904;51.058;5.378;2022-07-06T02:26:36;11.30;99.90
44229;DHT22;29904;51.058;5.378;2022-07-06T02:29:04;11.30;99.90
44229;DHT22;29904;51.058;5.378;2022-07-06T02:31:30;11.30;99.90
44229;DHT22;29904;51.058;5.378;2022-07-06T02:33:56;11.30;99.90
44229;DHT22;29904;51.058;5.378;2022-07-06T02:36:23;11.20;99.90
44229;DHT22;29904;51.058;5.378;2022-07-06T02:38:49;11.20;99.90
44229;DHT22;29904;51.058;5.378;2022-07-06T02:41:14;11.10;99.90
44229;DHT22;29904;51.058;5.378;2022-07-06T02:43:40;11.10;99.90
44229;DHT22;29904;51.058;5.378;2022-07-06T02:46:06;11.10;99.90
44229;DHT22;29904;51.058;5.378;2022-07-06T02:48:31;11.20;99.90
44229;DHT22;29904;51.058;5.378;2022-07-06T02:50:57;11.10;99.90
44229;DHT22;29904;51.058;5.378;2022-07-06T02:53:26;11.10;99.90
44229;DHT22;29904;51.058;5.378;2022-07-06T02:55:51;11.10;99.90
44229;DHT22;29904;51.058;5.378;2022-07-06T02:58:17;11.00;99.90
44229;DHT22;29904;51.058;5.378;2022-07-06T03:00:44;11.00;99.90
44229;DHT22;29904;51.058;5.378;2022-07-06T03:03:12;11.00;99.90
44229;DHT22;29904;51.058;5.378;2022-07-06T03:05:37;11.00;99.90
44229;DHT22;29904;51.058;5.378;2022-07-06T03:08:05;11.00;99.90
44229;DHT22;29904;51.058;5.378;2022-07-06T03:10:31;11.00;99.90
44229;DHT22;29904;51.058;5.378;2022-07-06T03:12:57;11.00;99.90
44229;DHT22;29904;51.058;5.378;2022-07-06T03:15:22;10.90;99.90
44229;DHT22;29904;51.058;5.378;2022-07-06T03:17:48;10.90;99.90
44229;DHT22;29904;51.058;5.378;2022-07-06T03:20:14;10.90;99.90
44229;DHT22;29904;51.058;5.378;2022-07-06T03:22:41;10.90;99.90
44229;DHT22;29904;51.058;5.378;2022-07-06T03:25:08;10.90;99.90
44229;DHT22;29904;51.058;5.378;2022-07-06T03:27:34;10.90;99.90
44229;DHT22;29904;51.058;5.378;2022-07-06T03:30:01;10.80;99.90
44229;DHT22;29904;51.058;5.378;2022-07-06T03:32:27;10.80;99.90
44229;DHT22;29904;51.058;5.378;2022-07-06T03:34:52;10.90;99.90
44229;DHT22;29904;51.058;5.378;2022-07-06T03:37:18;10.80;99.90
44229;DHT22;29904;51.058;5.378;2022-07-06T03:39:44;10.80;99.90
44229;DHT22;29904;51.058;5.378;2022-07-06T03:42:11;10.90;99.90
44229;DHT22;29904;51.058;5.378;2022-07-06T03:44:37;10.90;99.90
44229;DHT22;29904;51.058;5.378;2022-07-06T03:47:03;10.90;99.90
44229;DHT22;29904;51.058;5.378;2022-07-06T03:49:28;10.90;99.90
44229;DHT22;29904;51.058;5.378;2022-07-06T03:51:54;10.90;99.90
44229;DHT22;29904;51.058;5.378;2022-07-06T03:54:20;10.90;99.90
44229;DHT22;29904;51.058;5.378;2022-07-06T03:56:47;10.90;99.90
44229;DHT22;29904;51.058;5.378;2022-07-06T03:59:15;10.90;99.90
44229;DHT22;29904;51.058;5.378;2022-07-06T04:01:41;10.90;99.90
44229;DHT22;29904;51.058;5.378;2022-07-06T04:04:06;11.00;99.90
44229;DHT22;29904;51.058;5.378;2022-07-06T04:06:32;11.00;99.90
44229;DHT22;29904;51.058;5.378;2022-07-06T04:09:00;11.00;99.90
44229;DHT22;29904;51.058;5.378;2022-07-06T04:11:27;11.00;99.90
44229;DHT22;29904;51.058;5.378;2022-07-06T04:13:53;11.00;99.90
44229;DHT22;29904;51.058;5.378;2022-07-06T04:16:20;11.10;99.90
44229;DHT22;29904;51.058;5.378;2022-07-06T04:18:46;11.20;99.90
44229;DHT22;29904;51.058;5.378;2022-07-06T04:21:11;11.20;99.90
44229;DHT22;29904;51.058;5.378;2022-07-06T04:23:37;11.30;99.90
44229;DHT22;29904;51.058;5.378;2022-07-06T04:26:05;11.30;99.90
44229;DHT22;29904;51.058;5.378;2022-07-06T04:28:32;11.40;99.90
44229;DHT22;29904;51.058;5.378;2022-07-06T04:30:58;11.40;99.90
44229;DHT22;29904;51.058;5.378;2022-07-06T04:33:23;11.40;99.90
44229;DHT22;29904;51.058;5.378;2022-07-06T04:35:51;11.50;99.90
44229;DHT22;29904;51.058;5.378;2022-07-06T04:38:17;11.60;99.90
44229;DHT22;29904;51.058;5.378;2022-07-06T04:40:43;11.70;99.90
44229;DHT22;29904;51.058;5.378;2022-07-06T04:43:12;11.70;99.90
44229;DHT22;29904;51.058;5.378;2022-07-06T04:45:37;11.80;99.90
44229;DHT22;29904;51.058;5.378;2022-07-06T04:48:03;11.80;99.90
44229;DHT22;29904;51.058;5.378;2022-07-06T04:50:31;11.90;99.90
44229;DHT22;29904;51.058;5.378;2022-07-06T04:52:59;12.00;99.90
44229;DHT22;29904;51.058;5.378;2022-07-06T04:55:24;12.10;99.90
44229;DHT22;29904;51.058;5.378;2022-07-06T04:57:52;12.30;99.90
44229;DHT22;29904;51.058;5.378;2022-07-06T05:00:18;12.50;99.90
44229;DHT22;29904;51.058;5.378;2022-07-06T05:02:44;12.80;99.90
44229;DHT22;29904;51.058;5.378;2022-07-06T05:05:10;13.00;99.90
44229;DHT22;29904;51.058;5.378;2022-07-06T05:07:35;13.60;99.90
44229;DHT22;29904;51.058;5.378;2022-07-06T05:10:06;14.50;99.90
44229;DHT22;29904;51.058;5.378;2022-07-06T05:12:32;15.50;99.90
44229;DHT22;29904;51.058;5.378;2022-07-06T05:14:58;15.70;99.90
44229;DHT22;29904;51.058;5.378;2022-07-06T05:17:24;15.60;99.90
44229;DHT22;29904;51.058;5.378;2022-07-06T05:19:50;15.50;99.90
44229;DHT22;29904;51.058;5.378;2022-07-06T05:22:16;15.30;99.90
44229;DHT22;29904;51.058;5.378;2022-07-06T05:24:41;15.20;99.90
44229;DHT22;29904;51.058;5.378;2022-07-06T05:27:07;14.90;99.90
44229;DHT22;29904;51.058;5.378;2022-07-06T05:29:33;14.80;99.90
44229;DHT22;29904;51.058;5.378;2022-07-06T05:31:59;14.80;99.90
44229;DHT22;29904;51.058;5.378;2022-07-06T05:34:24;14.70;99.90
44229;DHT22;29904;51.058;5.378;2022-07-06T05:36:50;14.70;99.90
44229;DHT22;29904;51.058;5.378;2022-07-06T05:39:16;14.70;99.90
44229;DHT22;29904;51.058;5.378;2022-07-06T05:41:45;14.60;99.90
44229;DHT22;29904;51.058;5.378;2022-07-06T05:44:11;14.70;99.90
44229;DHT22;29904;51.058;5.378;2022-07-06T05:46:39;14.70;99.90
44229;DHT22;29904;51.058;5.378;2022-07-06T05:49:06;14.80;99.90
44229;DHT22;29904;51.058;5.378;2022-07-06T05:51:50;14.90;99.90
44229;DHT22;29904;51.058;5.378;2022-07-06T05:54:16;15.00;99.90
44229;DHT22;29904;51.058;5.378;2022-07-06T05:56:42;15.10;99.90
44229;DHT22;29904;51.058;5.378;2022-07-06T05:59:08;15.10;99.90
44229;DHT22;29904;51.058;5.378;2022-07-06T06:01:33;15.20;99.90
44229;DHT22;29904;51.058;5.378;2022-07-06T06:03:59;15.40;99.90
44229;DHT22;29904;51.058;5.378;2022-07-06T06:06:26;15.60;99.90
44229;DHT22;29904;51.058;5.378;2022-07-06T06:08:52;15.80;99.90
44229;DHT22;29904;51.058;5.378;2022-07-06T06:11:17;16.00;99.90
44229;DHT22;29904;51.058;5.378;2022-07-06T06:13:43;16.20;99.90
44229;DHT22;29904;51.058;5.378;2022-07-06T06:16:09;16.20;99.90
44229;DHT22;29904;51.058;5.378;2022-07-06T06:18:35;16.30;99.90
44229;DHT22;29904;51.058;5.378;2022-07-06T06:21:01;16.40;99.90
44229;DHT22;29904;51.058;5.378;2022-07-06T06:23:27;16.40;99.90
44229;DHT22;29904;51.058;5.378;2022-07-06T06:25:52;16.50;99.90
44229;DHT22;29904;51.058;5.378;2022-07-06T06:28:18;16.70;99.90
44229;DHT22;29904;51.058;5.378;2022-07-06T06:30:44;16.80;99.90
44229;DHT22;29904;51.058;5.378;2022-07-06T06:33:12;16.90;99.90
44229;DHT22;29904;51.058;5.378;2022-07-06T06:35:42;17.00;99.90
44229;DHT22;29904;51.058;5.378;2022-07-06T06:38:08;17.20;99.90
44229;DHT22;29904;51.058;5.378;2022-07-06T06:40:36;17.30;99.90
44229;DHT22;29904;51.058;5.378;2022-07-06T06:43:02;17.30;99.90
44229;DHT22;29904;51.058;5.378;2022-07-06T06:45:28;17.40;99.90
44229;DHT22;29904;51.058;5.378;2022-07-06T06:47:53;17.60;99.90
44229;DHT22;29904;51.058;5.378;2022-07-06T06:50:19;17.60;99.90
44229;DHT22;29904;51.058;5.378;2022-07-06T06:52:45;17.70;99.90
44229;DHT22;29904;51.058;5.378;2022-07-06T06:55:12;17.70;99.90
44229;DHT22;29904;51.058;5.378;2022-07-06T06:57:38;17.70;99.90
44229;DHT22;29904;51.058;5.378;2022-07-06T07:00:05;17.80;99.90
44229;DHT22;29904;51.058;5.378;2022-07-06T07:02:31;18.00;99.90
44229;DHT22;29904;51.058;5.378;2022-07-06T07:04:56;18.20;99.90
44229;DHT22;29904;51.058;5.378;2022-07-06T07:07:22;18.30;99.90
44229;DHT22;29904;51.058;5.378;2022-07-06T07:09:48;18.40;99.90
44229;DHT22;29904;51.058;5.378;2022-07-06T07:12:13;18.60;99.90
44229;DHT22;29904;51.058;5.378;2022-07-06T07:14:42;18.60;99.90
44229;DHT22;29904;51.058;5.378;2022-07-06T07:17:08;18.50;99.90
44229;DHT22;29904;51.058;5.378;2022-07-06T07:19:34;18.60;99.90
44229;DHT22;29904;51.058;5.378;2022-07-06T07:21:59;18.40;99.90
44229;DHT22;29904;51.058;5.378;2022-07-06T07:24:27;18.20;99.90
44229;DHT22;29904;51.058;5.378;2022-07-06T07:26:53;18.00;99.90
44229;DHT22;29904;51.058;5.378;2022-07-06T07:29:19;18.00;99.90
44229;DHT22;29904;51.058;5.378;2022-07-06T07:31:46;18.10;99.90
44229;DHT22;29904;51.058;5.378;2022-07-06T07:34:12;18.20;99.90
44229;DHT22;29904;51.058;5.378;2022-07-06T07:36:38;18.30;99.90
44229;DHT22;29904;51.058;5.378;2022-07-06T07:39:04;18.30;99.90
44229;DHT22;29904;51.058;5.378;2022-07-06T07:41:29;18.40;99.90
44229;DHT22;29904;51.058;5.378;2022-07-06T07:43:55;18.50;99.90
44229;DHT22;29904;51.058;5.378;2022-07-06T07:46:23;18.70;99.90
44229;DHT22;29904;51.058;5.378;2022-07-06T07:48:49;18.80;99.90
44229;DHT22;29904;51.058;5.378;2022-07-06T07:51:15;18.80;99.90
44229;DHT22;29904;51.058;5.378;2022-07-06T07:53:40;18.80;99.90
44229;DHT22;29904;51.058;5.378;2022-07-06T07:56:06;19.30;99.90
44229;DHT22;29904;51.058;5.378;2022-07-06T07:58:32;19.90;99.90
44229;DHT22;29904;51.058;5.378;2022-07-06T08:00:58;20.30;99.90
44229;DHT22;29904;51.058;5.378;2022-07-06T08:03:24;20.70;99.90
44229;DHT22;29904;51.058;5.378;2022-07-06T08:05:49;21.00;99.90
44229;DHT22;29904;51.058;5.378;2022-07-06T08:08:17;21.40;99.90
44229;DHT22;29904;51.058;5.378;2022-07-06T08:10:45;21.50;99.90
44229;DHT22;29904;51.058;5.378;2022-07-06T08:13:11;21.80;99.90
44229;DHT22;29904;51.058;5.378;2022-07-06T08:15:37;22.10;99.90
44229;DHT22;29904;51.058;5.378;2022-07-06T08:18:04;22.20;99.40
44229;DHT22;29904;51.058;5.378;2022-07-06T08:20:29;22.30;99.40
44229;DHT22;29904;51.058;5.378;2022-07-06T08:22:57;22.50;99.60
44229;DHT22;29904;51.058;5.378;2022-07-06T08:25:25;22.60;98.90
44229;DHT22;29904;51.058;5.378;2022-07-06T08:27:50;22.60;97.50
44229;DHT22;29904;51.058;5.378;2022-07-06T08:30:16;22.60;98.20
44229;DHT22;29904;51.058;5.378;2022-07-06T08:32:44;22.50;98.00
44229;DHT22;29904;51.058;5.378;2022-07-06T08:35:10;22.50;98.70
44229;DHT22;29904;51.058;5.378;2022-07-06T08:37:36;22.60;98.70
44229;DHT22;29904;51.058;5.378;2022-07-06T08:40:04;22.30;98.90
44229;DHT22;29904;51.058;5.378;2022-07-06T08:42:32;22.30;99.90
44229;DHT22;29904;51.058;5.378;2022-07-06T08:44:59;22.70;99.70
44229;DHT22;29904;51.058;5.378;2022-07-06T08:47:27;22.90;97.50
44229;DHT22;29904;51.058;5.378;2022-07-06T08:49:55;22.90;97.50
44229;DHT22;29904;51.058;5.378;2022-07-06T08:52:22;22.80;99.80
44229;DHT22;29904;51.058;5.378;2022-07-06T08:54:48;23.10;99.10
44229;DHT22;29904;51.058;5.378;2022-07-06T08:57:17;23.30;96.70
44229;DHT22;29904;51.058;5.378;2022-07-06T08:59:43;23.40;98.90
44229;DHT22;29904;51.058;5.378;2022-07-06T09:02:13;23.80;98.80
44229;DHT22;29904;51.058;5.378;2022-07-06T09:04:42;23.40;96.20
44229;DHT22;29904;51.058;5.378;2022-07-06T09:07:08;22.60;96.40
44229;DHT22;29904;51.058;5.378;2022-07-06T09:09:36;22.60;97.40
44229;DHT22;29904;51.058;5.378;2022-07-06T09:12:07;22.50;96.90
44229;DHT22;29904;51.058;5.378;2022-07-06T09:14:34;22.40;96.80
44229;DHT22;29904;51.058;5.378;2022-07-06T09:17:05;22.60;97.10
44229;DHT22;29904;51.058;5.378;2022-07-06T09:19:32;22.70;96.70
44229;DHT22;29904;51.058;5.378;2022-07-06T09:22:01;22.60;96.30
44229;DHT22;29904;51.058;5.378;2022-07-06T09:24:27;22.40;96.20
44229;DHT22;29904;51.058;5.378;2022-07-06T09:26:55;22.10;99.50
44229;DHT22;29904;51.058;5.378;2022-07-06T09:29:31;22.10;97.70
44229;DHT22;29904;51.058;5.378;2022-07-06T09:32:03;21.80;98.80
44229;DHT22;29904;51.058;5.378;2022-07-06T09:34:44;21.90;98.60
44229;DHT22;29904;51.058;5.378;2022-07-06T09:37:11;22.10;98.00
44229;DHT22;29904;51.058;5.378;2022-07-06T09:39:37;22.10;98.80
44229;DHT22;29904;51.058;5.378;2022-07-06T09:42:05;22.40;98.80
44229;DHT22;29904;51.058;5.378;2022-07-06T09:44:42;22.60;96.70
44229;DHT22;29904;51.058;5.378;2022-07-06T09:47:11;22.30;96.90
44229;DHT22;29904;51.058;5.378;2022-07-06T09:49:38;22.00;97.40
44229;DHT22;29904;51.058;5.378;2022-07-06T09:52:09;21.90;97.70
44229;DHT22;29904;51.058;5.378;2022-07-06T09:54:38;21.80;97.70
44229;DHT22;29904;51.058;5.378;2022-07-06T09:57:04;21.80;98.40
44229;DHT22;29904;51.058;5.378;2022-07-06T09:59:32;22.00;99.80
44229;DHT22;29904;51.058;5.378;2022-07-06T10:02:04;22.40;99.90
44229;DHT22;29904;51.058;5.378;2022-07-06T10:04:30;22.80;99.70
44229;DHT22;29904;51.058;5.378;2022-07-06T10:06:57;23.10;98.90
44229;DHT22;29904;51.058;5.378;2022-07-06T10:09:26;23.20;98.40
44229;DHT22;29904;51.058;5.378;2022-07-06T10:11:57;23.20;98.90
44229;DHT22;29904;51.058;5.378;2022-07-06T10:14:33;23.10;97.90
44229;DHT22;29904;51.058;5.378;2022-07-06T10:17:02;22.90;96.70
44229;DHT22;29904;51.058;5.378;2022-07-06T10:19:30;22.60;98.30
44229;DHT22;29904;51.058;5.378;2022-07-06T10:21:58;22.80;97.60
44229;DHT22;29904;51.058;5.378;2022-07-06T10:24:24;22.80;96.30
44229;DHT22;29904;51.058;5.378;2022-07-06T10:26:52;22.70;97.10
44229;DHT22;29904;51.058;5.378;2022-07-06T10:29:18;22.70;96.30
44229;DHT22;29904;51.058;5.378;2022-07-06T10:31:47;22.70;98.40
44229;DHT22;29904;51.058;5.378;2022-07-06T10:34:15;22.80;96.30
44229;DHT22;29904;51.058;5.378;2022-07-06T10:36:47;23.00;97.30
44229;DHT22;29904;51.058;5.378;2022-07-06T10:39:15;22.70;97.80
44229;DHT22;29904;51.058;5.378;2022-07-06T10:42:01;23.00;98.10
44229;DHT22;29904;51.058;5.378;2022-07-06T10:44:27;22.80;95.60
44229;DHT22;29904;51.058;5.378;2022-07-06T10:46:57;22.60;96.90
44229;DHT22;29904;51.058;5.378;2022-07-06T10:49:25;22.60;96.80
44229;DHT22;29904;51.058;5.378;2022-07-06T10:51:53;22.80;97.50
44229;DHT22;29904;51.058;5.378;2022-07-06T10:54:23;23.00;96.30
44229;DHT22;29904;51.058;5.378;2022-07-06T10:56:51;23.10;96.80
44229;DHT22;29904;51.058;5.378;2022-07-06T10:59:29;22.80;96.40
44229;DHT22;29904;51.058;5.378;2022-07-06T11:04:40;23.20;96.90
44229;DHT22;29904;51.058;5.378;2022-07-06T11:07:10;23.50;98.30
44229;DHT22;29904;51.058;5.378;2022-07-06T11:09:37;23.70;96.30
44229;DHT22;29904;51.058;5.378;2022-07-06T11:12:18;23.60;97.20
44229;DHT22;29904;51.058;5.378;2022-07-06T11:14:49;23.60;97.80
44229;DHT22;29904;51.058;5.378;2022-07-06T11:17:15;23.60;97.60
44229;DHT22;29904;51.058;5.378;2022-07-06T11:19:58;23.50;97.10
44229;DHT22;29904;51.058;5.378;2022-07-06T11:22:36;23.70;97.20
44229;DHT22;29904;51.058;5.378;2022-07-06T11:25:02;23.50;95.80
44229;DHT22;29904;51.058;5.378;2022-07-06T11:27:28;23.20;96.30
44229;DHT22;29904;51.058;5.378;2022-07-06T11:29:54;23.40;96.20
44229;DHT22;29904;51.058;5.378;2022-07-06T11:32:25;23.30;96.90
44229;DHT22;29904;51.058;5.378;2022-07-06T11:34:51;23.50;98.90
44229;DHT22;29904;51.058;5.378;2022-07-06T11:37:17;23.70;97.40
44229;DHT22;29904;51.058;5.378;2022-07-06T11:39:45;24.00;97.10
44229;DHT22;29904;51.058;5.378;2022-07-06T11:42:13;24.20;96.50
44229;DHT22;29904;51.058;5.378;2022-07-06T11:44:41;24.50;98.20
44229;DHT22;29904;51.058;5.378;2022-07-06T11:47:08;24.80;98.50
44229;DHT22;29904;51.058;5.378;2022-07-06T11:49:36;25.00;97.40
44229;DHT22;29904;51.058;5.378;2022-07-06T11:52:06;25.00;95.30
44229;DHT22;29904;51.058;5.378;2022-07-06T11:54:33;24.90;95.50
44229;DHT22;29904;51.058;5.378;2022-07-06T11:56:59;24.60;97.00
44229;DHT22;29904;51.058;5.378;2022-07-06T11:59:31;24.60;94.90
44229;DHT22;29904;51.058;5.378;2022-07-06T12:02:02;24.70;95.10
44229;DHT22;29904;51.058;5.378;2022-07-06T12:04:29;24.70;94.50
44229;DHT22;29904;51.058;5.378;2022-07-06T12:07:03;24.60;95.30
44229;DHT22;29904;51.058;5.378;2022-07-06T12:09:33;24.70;95.30
44229;DHT22;29904;51.058;5.378;2022-07-06T12:12:00;24.60;95.80
44229;DHT22;29904;51.058;5.378;2022-07-06T12:14:29;23.90;93.70
44229;DHT22;29904;51.058;5.378;2022-07-06T12:16:59;23.50;94.60
44229;DHT22;29904;51.058;5.378;2022-07-06T12:19:28;23.20;95.10
44229;DHT22;29904;51.058;5.378;2022-07-06T12:21:53;23.50;96.90
44229;DHT22;29904;51.058;5.378;2022-07-06T12:24:26;23.70;95.80
44229;DHT22;29904;51.058;5.378;2022-07-06T12:26:54;23.90;95.50
44229;DHT22;29904;51.058;5.378;2022-07-06T12:29:21;24.10;94.80
44229;DHT22;29904;51.058;5.378;2022-07-06T12:31:53;24.30;95.20
44229;DHT22;29904;51.058;5.378;2022-07-06T12:34:21;24.60;94.70
44229;DHT22;29904;51.058;5.378;2022-07-06T12:36:55;24.20;94.30
44229;DHT22;29904;51.058;5.378;2022-07-06T12:39:23;24.30;96.20
44229;DHT22;29904;51.058;5.378;2022-07-06T12:41:51;24.40;93.90
44229;DHT22;29904;51.058;5.378;2022-07-06T12:44:22;24.40;95.00
44229;DHT22;29904;51.058;5.378;2022-07-06T12:46:49;24.50;94.60
44229;DHT22;29904;51.058;5.378;2022-07-06T12:49:21;25.00;96.80
44229;DHT22;29904;51.058;5.378;2022-07-06T12:52:09;25.20;95.40
44229;DHT22;29904;51.058;5.378;2022-07-06T12:57:09;24.90;94.70
44229;DHT22;29904;51.058;5.378;2022-07-06T12:59:42;24.70;95.60
44229;DHT22;29904;51.058;5.378;2022-07-06T13:04:43;25.00;96.30
44229;DHT22;29904;51.058;5.378;2022-07-06T13:07:18;25.40;94.10
44229;DHT22;29904;51.058;5.378;2022-07-06T13:09:45;25.30;95.10
44229;DHT22;29904;51.058;5.378;2022-07-06T13:12:11;24.90;93.10
44229;DHT22;29904;51.058;5.378;2022-07-06T13:14:36;24.60;94.00
44229;DHT22;29904;51.058;5.378;2022-07-06T13:17:02;24.70;94.50
44229;DHT22;29904;51.058;5.378;2022-07-06T13:19:30;25.00;95.30
44229;DHT22;29904;51.058;5.378;2022-07-06T13:21:56;25.30;95.50
44229;DHT22;29904;51.058;5.378;2022-07-06T13:24:21;25.50;95.10
44229;DHT22;29904;51.058;5.378;2022-07-06T13:26:47;25.90;95.10
44229;DHT22;29904;51.058;5.378;2022-07-06T13:29:13;26.00;95.50
44229;DHT22;29904;51.058;5.378;2022-07-06T13:31:39;25.90;93.00
44229;DHT22;29904;51.058;5.378;2022-07-06T13:34:06;25.40;93.70
44229;DHT22;29904;51.058;5.378;2022-07-06T13:36:35;25.10;93.20
44229;DHT22;29904;51.058;5.378;2022-07-06T13:39:01;25.00;96.50
44229;DHT22;29904;51.058;5.378;2022-07-06T13:41:27;25.30;95.90
44229;DHT22;29904;51.058;5.378;2022-07-06T13:43:55;25.10;93.30
44229;DHT22;29904;51.058;5.378;2022-07-06T13:46:23;24.90;95.30
44229;DHT22;29904;51.058;5.378;2022-07-06T13:48:49;25.10;95.90
44229;DHT22;29904;51.058;5.378;2022-07-06T13:51:15;24.90;94.90
44229;DHT22;29904;51.058;5.378;2022-07-06T13:53:43;24.80;94.30
44229;DHT22;29904;51.058;5.378;2022-07-06T13:56:09;24.60;94.30
44229;DHT22;29904;51.058;5.378;2022-07-06T13:58:34;24.70;95.30
44229;DHT22;29904;51.058;5.378;2022-07-06T14:01:00;24.80;96.40
44229;DHT22;29904;51.058;5.378;2022-07-06T14:03:28;25.00;96.10
44229;DHT22;29904;51.058;5.378;2022-07-06T14:06:05;25.10;96.30
44229;DHT22;29904;51.058;5.378;2022-07-06T14:08:36;25.00;94.80
44229;DHT22;29904;51.058;5.378;2022-07-06T14:11:03;24.70;95.30
44229;DHT22;29904;51.058;5.378;2022-07-06T14:13:29;24.60;95.50
44229;DHT22;29904;51.058;5.378;2022-07-06T14:15:55;24.40;95.00
44229;DHT22;29904;51.058;5.378;2022-07-06T14:18:21;24.10;95.50
44229;DHT22;29904;51.058;5.378;2022-07-06T14:20:48;23.90;97.10
44229;DHT22;29904;51.058;5.378;2022-07-06T14:23:17;24.00;97.20
44229;DHT22;29904;51.058;5.378;2022-07-06T14:25:43;24.20;96.60
44229;DHT22;29904;51.058;5.378;2022-07-06T14:28:10;24.70;98.20
44229;DHT22;29904;51.058;5.378;2022-07-06T14:30:39;25.30;96.70
44229;DHT22;29904;51.058;5.378;2022-07-06T14:33:06;25.60;95.80
44229;DHT22;29904;51.058;5.378;2022-07-06T14:35:43;25.70;95.00
44229;DHT22;29904;51.058;5.378;2022-07-06T14:38:09;25.80;95.90
44229;DHT22;29904;51.058;5.378;2022-07-06T14:40:35;25.90;95.00
44229;DHT22;29904;51.058;5.378;2022-07-06T14:43:04;26.20;97.30
44229;DHT22;29904;51.058;5.378;2022-07-06T14:45:30;26.50;94.90
44229;DHT22;29904;51.058;5.378;2022-07-06T14:47:56;26.50;94.20
44229;DHT22;29904;51.058;5.378;2022-07-06T14:50:24;26.10;93.90
44229;DHT22;29904;51.058;5.378;2022-07-06T14:52:50;26.20;94.50
44229;DHT22;29904;51.058;5.378;2022-07-06T14:55:16;26.20;94.80
44229;DHT22;29904;51.058;5.378;2022-07-06T14:57:42;26.30;95.30
44229;DHT22;29904;51.058;5.378;2022-07-06T15:00:08;26.20;95.30
44229;DHT22;29904;51.058;5.378;2022-07-06T15:02:34;26.00;94.40
44229;DHT22;29904;51.058;5.378;2022-07-06T15:05:00;25.90;94.30
44229;DHT22;29904;51.058;5.378;2022-07-06T15:07:25;25.90;94.90
44229;DHT22;29904;51.058;5.378;2022-07-06T15:09:51;26.00;95.40
44229;DHT22;29904;51.058;5.378;2022-07-06T15:12:19;26.00;94.20
44229;DHT22;29904;51.058;5.378;2022-07-06T15:14:44;25.80;93.80
44229;DHT22;29904;51.058;5.378;2022-07-06T15:17:10;25.50;94.10
44229;DHT22;29904;51.058;5.378;2022-07-06T15:19:36;25.50;94.60
44229;DHT22;29904;51.058;5.378;2022-07-06T15:22:02;25.40;95.10
44229;DHT22;29904;51.058;5.378;2022-07-06T15:24:28;25.30;94.90
44229;DHT22;29904;51.058;5.378;2022-07-06T15:26:55;25.30;94.80
44229;DHT22;29904;51.058;5.378;2022-07-06T15:29:21;25.40;95.20
44229;DHT22;29904;51.058;5.378;2022-07-06T15:31:47;25.50;95.50
44229;DHT22;29904;51.058;5.378;2022-07-06T15:34:14;25.60;94.90
44229;DHT22;29904;51.058;5.378;2022-07-06T15:36:40;25.60;95.40
44229;DHT22;29904;51.058;5.378;2022-07-06T15:39:06;25.70;95.00